Main page
METAR-TAF:

METAR-TAF

Airports :

Lemnos International Airport

Lemnos, Greece

latitude: 39-55N, longitude: 025-14E, elevation: 5 m

Current weather observation

The report was made 31 minutes ago, at 02:50 UTC
Wind 12 kt from the Northeast
Temperature 17°C
Humidity 77%
Pressure 1020 hPa
Visibility 10 km or more
Few clouds at a height of 1800 ft
Scattered clouds at a height of 2500 ft

METAR: LGLM 160250Z 04012KT 9999 FEW018 SCT025 17/13 Q1020

Time: 06:21 (03:21 UTC)

Forecast

The report was made 1 hour and 21 minutes ago, at 02:00 UTC
Forecast valid from 16 at 03 UTC to 16 at 12 UTC
Wind 15 kt from the North/Northeast
Visibility 10 km or more
Few clouds at a height of 1500 ft
Scattered clouds at a height of 2500 ft

TAF: LGLM 160200Z 1603/1612 02015KT 9999 FEW015 SCT025

Weather observations and forecasts of more than 4000 airports (METAR and TAF reports).

The available stations are represented by yellow and red dots on the map.

Hover mouse over dot to see the name of the station.

Then click to see weather observations and forecasts.

To change the map : click on the green buttons with a black cross to zoom in, on the green button with a dash to zoom out, or on the green arrows for adjacent maps.


METAR-TAF: